sensor_id;sensor_type;location;lat;lon;timestamp;P1;durP1;ratioP1;P2;durP2;ratioP2
45402;SDS011;47427;51.976;5.326;2023-06-22T00:00:43;17.33;;;15.75;;
45402;SDS011;47427;51.976;5.326;2023-06-22T00:04:05;17.77;;;16.27;;
45402;SDS011;47427;51.976;5.326;2023-06-22T00:07:28;17.13;;;15.82;;
45402;SDS011;47427;51.976;5.326;2023-06-22T00:10:49;17.95;;;16.55;;
45402;SDS011;47427;51.976;5.326;2023-06-22T00:14:12;17.90;;;16.25;;
45402;SDS011;47427;51.976;5.326;2023-06-22T00:17:34;19.10;;;17.40;;
45402;SDS011;47427;51.976;5.326;2023-06-22T00:20:56;18.88;;;17.38;;
45402;SDS011;47427;51.976;5.326;2023-06-22T00:24:20;19.02;;;17.52;;
45402;SDS011;47427;51.976;5.326;2023-06-22T00:27:46;18.67;;;17.27;;
45402;SDS011;47427;51.976;5.326;2023-06-22T00:31:07;26.23;;;18.23;;
45402;SDS011;47427;51.976;5.326;2023-06-22T00:34:31;19.30;;;17.83;;
45402;SDS011;47427;51.976;5.326;2023-06-22T00:37:56;20.00;;;18.27;;
45402;SDS011;47427;51.976;5.326;2023-06-22T00:41:22;20.17;;;18.65;;
45402;SDS011;47427;51.976;5.326;2023-06-22T00:44:45;19.77;;;18.00;;
45402;SDS011;47427;51.976;5.326;2023-06-22T00:48:07;19.98;;;18.38;;
45402;SDS011;47427;51.976;5.326;2023-06-22T00:51:30;19.63;;;18.13;;
45402;SDS011;47427;51.976;5.326;2023-06-22T00:54:56;20.90;;;18.95;;
45402;SDS011;47427;51.976;5.326;2023-06-22T00:58:21;19.42;;;17.48;;
45402;SDS011;47427;51.976;5.326;2023-06-22T01:01:43;19.52;;;17.95;;
45402;SDS011;47427;51.976;5.326;2023-06-22T01:12:09;19.25;;;17.67;;
45402;SDS011;47427;51.976;5.326;2023-06-22T01:15:40;20.83;;;19.08;;
45402;SDS011;47427;51.976;5.326;2023-06-22T01:19:29;19.83;;;18.33;;
45402;SDS011;47427;51.976;5.326;2023-06-22T01:26:59;20.90;;;19.30;;
45402;SDS011;47427;51.976;5.326;2023-06-22T01:30:52;21.05;;;19.25;;
45402;SDS011;47427;51.976;5.326;2023-06-22T01:34:25;21.63;;;19.77;;
45402;SDS011;47427;51.976;5.326;2023-06-22T01:37:54;21.65;;;20.00;;
45402;SDS011;47427;51.976;5.326;2023-06-22T01:41:19;22.48;;;20.38;;
45402;SDS011;47427;51.976;5.326;2023-06-22T01:44:46;23.13;;;21.23;;
45402;SDS011;47427;51.976;5.326;2023-06-22T01:48:09;22.60;;;20.65;;
45402;SDS011;47427;51.976;5.326;2023-06-22T01:51:37;23.10;;;21.20;;
45402;SDS011;47427;51.976;5.326;2023-06-22T01:54:58;22.45;;;20.50;;
45402;SDS011;47427;51.976;5.326;2023-06-22T01:58:23;24.50;;;22.38;;
45402;SDS011;47427;51.976;5.326;2023-06-22T02:02:02;23.33;;;21.33;;
45402;SDS011;47427;51.976;5.326;2023-06-22T02:05:30;24.27;;;21.85;;
45402;SDS011;47427;51.976;5.326;2023-06-22T02:08:59;24.15;;;21.73;;
45402;SDS011;47427;51.976;5.326;2023-06-22T02:12:28;23.88;;;21.83;;
45402;SDS011;47427;51.976;5.326;2023-06-22T02:15:54;25.05;;;22.98;;
45402;SDS011;47427;51.976;5.326;2023-06-22T02:19:37;25.30;;;22.95;;
45402;SDS011;47427;51.976;5.326;2023-06-22T02:23:02;24.00;;;22.07;;
45402;SDS011;47427;51.976;5.326;2023-06-22T02:26:25;23.95;;;22.05;;
45402;SDS011;47427;51.976;5.326;2023-06-22T02:29:48;25.50;;;23.38;;
45402;SDS011;47427;51.976;5.326;2023-06-22T02:33:11;23.80;;;21.80;;
45402;SDS011;47427;51.976;5.326;2023-06-22T02:36:33;24.77;;;22.58;;
45402;SDS011;47427;51.976;5.326;2023-06-22T02:39:58;25.80;;;23.70;;
45402;SDS011;47427;51.976;5.326;2023-06-22T02:43:19;25.73;;;23.30;;
45402;SDS011;47427;51.976;5.326;2023-06-22T02:46:42;26.42;;;24.08;;
45402;SDS011;47427;51.976;5.326;2023-06-22T02:50:04;24.23;;;22.23;;
45402;SDS011;47427;51.976;5.326;2023-06-22T02:53:28;25.83;;;23.52;;
45402;SDS011;47427;51.976;5.326;2023-06-22T02:56:53;24.55;;;22.45;;
45402;SDS011;47427;51.976;5.326;2023-06-22T03:00:17;26.13;;;23.92;;
45402;SDS011;47427;51.976;5.326;2023-06-22T03:03:44;27.80;;;25.50;;
45402;SDS011;47427;51.976;5.326;2023-06-22T03:07:08;25.17;;;23.02;;
45402;SDS011;47427;51.976;5.326;2023-06-22T03:10:32;26.48;;;24.27;;
45402;SDS011;47427;51.976;5.326;2023-06-22T03:13:53;26.73;;;24.20;;
45402;SDS011;47427;51.976;5.326;2023-06-22T03:17:17;25.90;;;23.70;;
45402;SDS011;47427;51.976;5.326;2023-06-22T03:20:43;26.67;;;24.57;;
45402;SDS011;47427;51.976;5.326;2023-06-22T03:24:08;27.10;;;24.80;;
45402;SDS011;47427;51.976;5.326;2023-06-22T03:27:49;26.92;;;24.73;;
45402;SDS011;47427;51.976;5.326;2023-06-22T03:31:11;27.80;;;25.40;;
45402;SDS011;47427;51.976;5.326;2023-06-22T03:34:35;26.13;;;23.92;;
45402;SDS011;47427;51.976;5.326;2023-06-22T03:37:56;28.20;;;25.80;;
45402;SDS011;47427;51.976;5.326;2023-06-22T03:41:40;28.75;;;26.35;;
45402;SDS011;47427;51.976;5.326;2023-06-22T03:45:07;28.13;;;25.50;;
45402;SDS011;47427;51.976;5.326;2023-06-22T03:48:32;28.73;;;26.38;;
45402;SDS011;47427;51.976;5.326;2023-06-22T03:51:54;28.33;;;25.63;;
45402;SDS011;47427;51.976;5.326;2023-06-22T03:55:16;29.27;;;26.77;;
45402;SDS011;47427;51.976;5.326;2023-06-22T03:58:39;29.77;;;27.13;;
45402;SDS011;47427;51.976;5.326;2023-06-22T04:02:04;29.65;;;26.95;;
45402;SDS011;47427;51.976;5.326;2023-06-22T04:05:26;30.15;;;27.65;;
45402;SDS011;47427;51.976;5.326;2023-06-22T04:09:12;30.05;;;27.42;;
45402;SDS011;47427;51.976;5.326;2023-06-22T04:12:39;30.10;;;27.42;;
45402;SDS011;47427;51.976;5.326;2023-06-22T04:16:02;30.60;;;27.90;;
45402;SDS011;47427;51.976;5.326;2023-06-22T04:19:26;31.13;;;28.40;;
45402;SDS011;47427;51.976;5.326;2023-06-22T04:22:47;31.92;;;29.23;;
45402;SDS011;47427;51.976;5.326;2023-06-22T04:26:13;30.37;;;27.70;;
45402;SDS011;47427;51.976;5.326;2023-06-22T04:29:38;31.40;;;28.83;;
45402;SDS011;47427;51.976;5.326;2023-06-22T04:33:09;31.55;;;28.85;;
45402;SDS011;47427;51.976;5.326;2023-06-22T04:36:35;32.17;;;29.48;;
45402;SDS011;47427;51.976;5.326;2023-06-22T04:40:00;31.83;;;29.23;;
45402;SDS011;47427;51.976;5.326;2023-06-22T04:43:23;32.42;;;29.70;;
45402;SDS011;47427;51.976;5.326;2023-06-22T04:46:47;32.08;;;29.00;;
45402;SDS011;47427;51.976;5.326;2023-06-22T04:50:14;33.38;;;30.45;;
45402;SDS011;47427;51.976;5.326;2023-06-22T04:53:37;33.85;;;30.92;;
45402;SDS011;47427;51.976;5.326;2023-06-22T04:57:02;33.20;;;30.42;;
45402;SDS011;47427;51.976;5.326;2023-06-22T05:00:32;33.28;;;30.23;;
45402;SDS011;47427;51.976;5.326;2023-06-22T05:03:58;33.40;;;30.42;;
45402;SDS011;47427;51.976;5.326;2023-06-22T05:07:21;32.63;;;29.85;;
45402;SDS011;47427;51.976;5.326;2023-06-22T05:10:47;31.88;;;29.45;;
45402;SDS011;47427;51.976;5.326;2023-06-22T05:14:10;33.92;;;30.83;;
45402;SDS011;47427;51.976;5.326;2023-06-22T05:17:31;33.25;;;30.13;;
45402;SDS011;47427;51.976;5.326;2023-06-22T05:20:53;35.22;;;32.15;;
45402;SDS011;47427;51.976;5.326;2023-06-22T05:24:18;35.95;;;32.53;;
45402;SDS011;47427;51.976;5.326;2023-06-22T05:27:44;36.88;;;33.55;;
45402;SDS011;47427;51.976;5.326;2023-06-22T05:34:31;37.92;;;34.65;;
45402;SDS011;47427;51.976;5.326;2023-06-22T05:37:54;40.28;;;36.70;;
45402;SDS011;47427;51.976;5.326;2023-06-22T05:41:27;41.45;;;37.67;;
45402;SDS011;47427;51.976;5.326;2023-06-22T05:44:51;42.90;;;38.72;;
45402;SDS011;47427;51.976;5.326;2023-06-22T05:48:15;43.03;;;39.03;;
45402;SDS011;47427;51.976;5.326;2023-06-22T05:51:36;44.63;;;40.33;;
45402;SDS011;47427;51.976;5.326;2023-06-22T05:54:59;43.10;;;38.80;;
45402;SDS011;47427;51.976;5.326;2023-06-22T05:58:29;44.83;;;40.25;;
45402;SDS011;47427;51.976;5.326;2023-06-22T06:01:51;49.92;;;44.55;;
45402;SDS011;47427;51.976;5.326;2023-06-22T06:05:14;48.47;;;43.75;;
45402;SDS011;47427;51.976;5.326;2023-06-22T06:08:37;47.30;;;42.75;;
45402;SDS011;47427;51.976;5.326;2023-06-22T06:11:59;46.78;;;42.38;;
45402;SDS011;47427;51.976;5.326;2023-06-22T06:15:24;45.88;;;41.47;;
45402;SDS011;47427;51.976;5.326;2023-06-22T06:18:46;45.45;;;41.13;;
45402;SDS011;47427;51.976;5.326;2023-06-22T06:22:10;45.08;;;40.70;;
45402;SDS011;47427;51.976;5.326;2023-06-22T06:25:51;44.55;;;40.47;;
45402;SDS011;47427;51.976;5.326;2023-06-22T06:29:16;44.17;;;39.72;;
45402;SDS011;47427;51.976;5.326;2023-06-22T06:32:39;43.33;;;39.45;;
45402;SDS011;47427;51.976;5.326;2023-06-22T06:36:07;43.00;;;39.03;;
45402;SDS011;47427;51.976;5.326;2023-06-22T06:39:30;42.25;;;38.38;;
45402;SDS011;47427;51.976;5.326;2023-06-22T06:42:53;42.13;;;37.90;;
45402;SDS011;47427;51.976;5.326;2023-06-22T06:46:14;40.38;;;36.47;;
45402;SDS011;47427;51.976;5.326;2023-06-22T06:49:37;40.35;;;36.60;;
45402;SDS011;47427;51.976;5.326;2023-06-22T06:53:00;41.08;;;37.03;;
45402;SDS011;47427;51.976;5.326;2023-06-22T06:56:22;43.03;;;38.95;;
45402;SDS011;47427;51.976;5.326;2023-06-22T06:59:45;39.10;;;35.58;;
45402;SDS011;47427;51.976;5.326;2023-06-22T07:03:10;40.45;;;36.80;;
45402;SDS011;47427;51.976;5.326;2023-06-22T07:06:34;40.38;;;36.72;;
45402;SDS011;47427;51.976;5.326;2023-06-22T07:09:58;40.78;;;37.40;;
45402;SDS011;47427;51.976;5.326;2023-06-22T07:13:20;42.42;;;38.53;;
45402;SDS011;47427;51.976;5.326;2023-06-22T07:16:44;41.30;;;37.58;;
45402;SDS011;47427;51.976;5.326;2023-06-22T07:20:08;38.45;;;35.08;;
45402;SDS011;47427;51.976;5.326;2023-06-22T07:23:33;37.00;;;33.97;;
45402;SDS011;47427;51.976;5.326;2023-06-22T07:26:58;36.78;;;33.80;;
45402;SDS011;47427;51.976;5.326;2023-06-22T07:30:21;36.70;;;33.60;;
45402;SDS011;47427;51.976;5.326;2023-06-22T07:33:43;35.78;;;32.85;;
45402;SDS011;47427;51.976;5.326;2023-06-22T07:37:09;37.72;;;34.35;;
45402;SDS011;47427;51.976;5.326;2023-06-22T07:40:31;36.17;;;33.17;;
45402;SDS011;47427;51.976;5.326;2023-06-22T07:43:54;36.88;;;33.55;;
45402;SDS011;47427;51.976;5.326;2023-06-22T07:47:19;36.28;;;33.40;;
45402;SDS011;47427;51.976;5.326;2023-06-22T07:50:48;35.17;;;32.30;;
45402;SDS011;47427;51.976;5.326;2023-06-22T07:54:12;36.15;;;32.75;;
45402;SDS011;47427;51.976;5.326;2023-06-22T07:57:47;36.70;;;33.67;;
45402;SDS011;47427;51.976;5.326;2023-06-22T08:01:10;35.53;;;32.67;;
45402;SDS011;47427;51.976;5.326;2023-06-22T08:04:34;35.00;;;31.60;;
45402;SDS011;47427;51.976;5.326;2023-06-22T08:07:55;33.08;;;30.30;;
45402;SDS011;47427;51.976;5.326;2023-06-22T08:11:18;32.70;;;29.90;;
45402;SDS011;47427;51.976;5.326;2023-06-22T08:14:44;29.83;;;27.25;;
45402;SDS011;47427;51.976;5.326;2023-06-22T08:18:06;32.05;;;29.30;;
45402;SDS011;47427;51.976;5.326;2023-06-22T08:21:32;30.45;;;27.75;;
45402;SDS011;47427;51.976;5.326;2023-06-22T08:24:55;30.30;;;27.80;;
45402;SDS011;47427;51.976;5.326;2023-06-22T08:28:16;30.17;;;27.85;;
45402;SDS011;47427;51.976;5.326;2023-06-22T08:31:39;28.50;;;26.00;;
45402;SDS011;47427;51.976;5.326;2023-06-22T08:35:01;29.50;;;27.02;;
45402;SDS011;47427;51.976;5.326;2023-06-22T08:38:23;28.38;;;25.88;;
45402;SDS011;47427;51.976;5.326;2023-06-22T08:41:49;27.05;;;24.80;;
45402;SDS011;47427;51.976;5.326;2023-06-22T08:45:11;26.63;;;24.63;;
45402;SDS011;47427;51.976;5.326;2023-06-22T08:48:34;27.08;;;24.83;;
45402;SDS011;47427;51.976;5.326;2023-06-22T08:52:00;26.52;;;24.33;;
45402;SDS011;47427;51.976;5.326;2023-06-22T08:55:21;25.55;;;23.75;;
45402;SDS011;47427;51.976;5.326;2023-06-22T08:58:48;28.10;;;25.77;;
45402;SDS011;47427;51.976;5.326;2023-06-22T09:05:34;26.70;;;24.40;;
45402;SDS011;47427;51.976;5.326;2023-06-22T09:08:57;24.98;;;22.92;;
45402;SDS011;47427;51.976;5.326;2023-06-22T09:12:20;24.67;;;22.85;;
45402;SDS011;47427;51.976;5.326;2023-06-22T09:15:47;25.15;;;23.17;;
45402;SDS011;47427;51.976;5.326;2023-06-22T09:19:10;26.73;;;24.63;;
45402;SDS011;47427;51.976;5.326;2023-06-22T09:22:31;26.50;;;24.38;;
45402;SDS011;47427;51.976;5.326;2023-06-22T09:25:54;26.33;;;23.60;;
45402;SDS011;47427;51.976;5.326;2023-06-22T09:29:17;25.75;;;23.25;;
45402;SDS011;47427;51.976;5.326;2023-06-22T09:32:38;23.83;;;21.90;;
45402;SDS011;47427;51.976;5.326;2023-06-22T09:36:00;25.05;;;23.02;;
45402;SDS011;47427;51.976;5.326;2023-06-22T09:39:21;24.27;;;22.25;;
45402;SDS011;47427;51.976;5.326;2023-06-22T09:42:44;25.38;;;23.42;;
45402;SDS011;47427;51.976;5.326;2023-06-22T09:46:07;24.85;;;22.90;;
45402;SDS011;47427;51.976;5.326;2023-06-22T09:49:30;23.80;;;22.02;;
45402;SDS011;47427;51.976;5.326;2023-06-22T09:52:54;22.83;;;20.98;;
45402;SDS011;47427;51.976;5.326;2023-06-22T09:56:16;22.88;;;20.98;;
45402;SDS011;47427;51.976;5.326;2023-06-22T09:59:38;23.02;;;20.98;;
45402;SDS011;47427;51.976;5.326;2023-06-22T10:03:02;21.73;;;20.10;;
45402;SDS011;47427;51.976;5.326;2023-06-22T10:06:29;22.48;;;20.80;;
45402;SDS011;47427;51.976;5.326;2023-06-22T10:09:53;21.90;;;20.33;;
45402;SDS011;47427;51.976;5.326;2023-06-22T10:13:16;23.60;;;21.35;;
45402;SDS011;47427;51.976;5.326;2023-06-22T10:16:39;22.23;;;20.52;;
45402;SDS011;47427;51.976;5.326;2023-06-22T10:20:03;21.55;;;19.88;;
45402;SDS011;47427;51.976;5.326;2023-06-22T10:23:35;20.10;;;18.73;;
45402;SDS011;47427;51.976;5.326;2023-06-22T10:26:56;26.00;;;19.30;;
45402;SDS011;47427;51.976;5.326;2023-06-22T10:30:19;21.92;;;20.02;;
45402;SDS011;47427;51.976;5.326;2023-06-22T10:33:44;20.15;;;18.75;;
45402;SDS011;47427;51.976;5.326;2023-06-22T10:37:06;22.35;;;19.08;;
45402;SDS011;47427;51.976;5.326;2023-06-22T10:40:29;19.30;;;17.75;;
45402;SDS011;47427;51.976;5.326;2023-06-22T10:43:51;19.77;;;17.98;;
45402;SDS011;47427;51.976;5.326;2023-06-22T10:47:16;19.55;;;18.13;;
45402;SDS011;47427;51.976;5.326;2023-06-22T10:50:41;19.20;;;17.23;;
45402;SDS011;47427;51.976;5.326;2023-06-22T10:54:05;20.42;;;18.38;;
45402;SDS011;47427;51.976;5.326;2023-06-22T10:57:28;20.05;;;18.48;;
45402;SDS011;47427;51.976;5.326;2023-06-22T11:00:51;20.08;;;18.50;;
45402;SDS011;47427;51.976;5.326;2023-06-22T11:04:13;20.85;;;19.10;;
45402;SDS011;47427;51.976;5.326;2023-06-22T11:07:37;21.75;;;19.77;;
45402;SDS011;47427;51.976;5.326;2023-06-22T11:11:03;19.20;;;17.88;;
45402;SDS011;47427;51.976;5.326;2023-06-22T11:14:26;20.00;;;18.30;;
45402;SDS011;47427;51.976;5.326;2023-06-22T11:17:49;19.83;;;18.52;;
45402;SDS011;47427;51.976;5.326;2023-06-22T11:21:10;20.83;;;19.13;;
45402;SDS011;47427;51.976;5.326;2023-06-22T11:24:34;21.33;;;19.60;;
45402;SDS011;47427;51.976;5.326;2023-06-22T11:27:56;21.00;;;19.50;;
45402;SDS011;47427;51.976;5.326;2023-06-22T11:31:18;20.85;;;19.05;;
45402;SDS011;47427;51.976;5.326;2023-06-22T11:34:41;19.85;;;18.52;;
45402;SDS011;47427;51.976;5.326;2023-06-22T11:38:04;20.75;;;19.05;;
45402;SDS011;47427;51.976;5.326;2023-06-22T11:41:27;20.60;;;19.00;;
45402;SDS011;47427;51.976;5.326;2023-06-22T11:44:50;20.42;;;18.83;;
45402;SDS011;47427;51.976;5.326;2023-06-22T11:48:11;20.05;;;18.20;;
45402;SDS011;47427;51.976;5.326;2023-06-22T11:51:53;19.35;;;17.77;;
45402;SDS011;47427;51.976;5.326;2023-06-22T11:55:14;20.33;;;18.83;;
45402;SDS011;47427;51.976;5.326;2023-06-22T11:58:38;19.50;;;18.00;;
45402;SDS011;47427;51.976;5.326;2023-06-22T12:02:01;22.10;;;19.95;;
45402;SDS011;47427;51.976;5.326;2023-06-22T12:05:24;22.45;;;20.45;;
45402;SDS011;47427;51.976;5.326;2023-06-22T12:08:47;20.90;;;19.40;;
45402;SDS011;47427;51.976;5.326;2023-06-22T12:12:10;22.13;;;20.50;;
45402;SDS011;47427;51.976;5.326;2023-06-22T12:15:31;22.60;;;20.77;;
45402;SDS011;47427;51.976;5.326;2023-06-22T12:18:54;21.90;;;20.33;;
45402;SDS011;47427;51.976;5.326;2023-06-22T12:22:20;23.33;;;21.40;;
45402;SDS011;47427;51.976;5.326;2023-06-22T12:25:44;22.77;;;20.90;;
45402;SDS011;47427;51.976;5.326;2023-06-22T12:32:31;22.85;;;21.10;;
45402;SDS011;47427;51.976;5.326;2023-06-22T12:35:57;23.45;;;21.58;;
45402;SDS011;47427;51.976;5.326;2023-06-22T12:39:20;22.98;;;21.17;;
45402;SDS011;47427;51.976;5.326;2023-06-22T12:42:42;23.58;;;21.85;;
45402;SDS011;47427;51.976;5.326;2023-06-22T12:46:25;24.15;;;22.35;;
45402;SDS011;47427;51.976;5.326;2023-06-22T12:49:48;25.65;;;23.33;;
45402;SDS011;47427;51.976;5.326;2023-06-22T12:53:13;26.80;;;24.63;;
45402;SDS011;47427;51.976;5.326;2023-06-22T12:56:36;28.50;;;26.08;;
45402;SDS011;47427;51.976;5.326;2023-06-22T12:59:59;29.50;;;26.95;;
45402;SDS011;47427;51.976;5.326;2023-06-22T13:03:23;28.55;;;26.25;;
45402;SDS011;47427;51.976;5.326;2023-06-22T13:06:49;29.20;;;26.85;;
45402;SDS011;47427;51.976;5.326;2023-06-22T13:10:12;31.13;;;28.23;;
45402;SDS011;47427;51.976;5.326;2023-06-22T13:13:35;30.80;;;28.20;;
45402;SDS011;47427;51.976;5.326;2023-06-22T13:16:56;31.30;;;28.42;;
45402;SDS011;47427;51.976;5.326;2023-06-22T13:20:19;31.00;;;28.50;;
45402;SDS011;47427;51.976;5.326;2023-06-22T13:23:42;30.45;;;28.15;;
45402;SDS011;47427;51.976;5.326;2023-06-22T13:27:04;29.35;;;26.60;;
45402;SDS011;47427;51.976;5.326;2023-06-22T13:30:27;30.33;;;27.83;;
45402;SDS011;47427;51.976;5.326;2023-06-22T13:33:49;29.08;;;26.58;;
45402;SDS011;47427;51.976;5.326;2023-06-22T13:37:14;30.80;;;28.48;;
45402;SDS011;47427;51.976;5.326;2023-06-22T13:40:37;28.90;;;26.80;;
45402;SDS011;47427;51.976;5.326;2023-06-22T13:44:01;29.95;;;27.55;;
45402;SDS011;47427;51.976;5.326;2023-06-22T13:47:26;29.33;;;27.13;;
45402;SDS011;47427;51.976;5.326;2023-06-22T13:50:49;29.50;;;27.30;;
45402;SDS011;47427;51.976;5.326;2023-06-22T13:54:10;29.42;;;27.23;;
45402;SDS011;47427;51.976;5.326;2023-06-22T13:57:32;31.38;;;28.77;;
45402;SDS011;47427;51.976;5.326;2023-06-22T14:00:54;32.53;;;29.90;;
45402;SDS011;47427;51.976;5.326;2023-06-22T14:04:16;33.28;;;29.55;;
45402;SDS011;47427;51.976;5.326;2023-06-22T14:07:39;32.60;;;29.67;;
45402;SDS011;47427;51.976;5.326;2023-06-22T14:11:04;31.88;;;29.48;;
45402;SDS011;47427;51.976;5.326;2023-06-22T14:14:26;32.22;;;29.63;;
45402;SDS011;47427;51.976;5.326;2023-06-22T14:17:49;31.75;;;29.25;;
45402;SDS011;47427;51.976;5.326;2023-06-22T14:21:11;31.67;;;29.15;;
45402;SDS011;47427;51.976;5.326;2023-06-22T14:24:33;35.28;;;32.03;;
45402;SDS011;47427;51.976;5.326;2023-06-22T14:27:56;35.88;;;32.90;;
45402;SDS011;47427;51.976;5.326;2023-06-22T14:31:18;32.83;;;30.17;;
45402;SDS011;47427;51.976;5.326;2023-06-22T14:34:43;36.00;;;32.90;;
45402;SDS011;47427;51.976;5.326;2023-06-22T14:38:06;35.30;;;32.20;;
45402;SDS011;47427;51.976;5.326;2023-06-22T14:41:28;37.58;;;34.20;;
45402;SDS011;47427;51.976;5.326;2023-06-22T14:44:52;35.87;;;33.03;;
45402;SDS011;47427;51.976;5.326;2023-06-22T14:48:14;39.47;;;36.03;;
45402;SDS011;47427;51.976;5.326;2023-06-22T14:51:37;40.10;;;36.65;;
45402;SDS011;47427;51.976;5.326;2023-06-22T14:55:00;39.38;;;36.20;;
45402;SDS011;47427;51.976;5.326;2023-06-22T14:58:22;39.05;;;35.85;;
45402;SDS011;47427;51.976;5.326;2023-06-22T15:01:45;41.97;;;38.10;;
45402;SDS011;47427;51.976;5.326;2023-06-22T15:05:08;41.65;;;38.10;;
45402;SDS011;47427;51.976;5.326;2023-06-22T15:08:30;42.17;;;38.63;;
45402;SDS011;47427;51.976;5.326;2023-06-22T15:11:53;40.97;;;37.85;;
45402;SDS011;47427;51.976;5.326;2023-06-22T15:15:21;41.05;;;37.40;;
45402;SDS011;47427;51.976;5.326;2023-06-22T15:18:42;40.58;;;37.10;;
45402;SDS011;47427;51.976;5.326;2023-06-22T15:22:05;40.47;;;37.15;;
45402;SDS011;47427;51.976;5.326;2023-06-22T15:25:28;39.45;;;36.17;;
45402;SDS011;47427;51.976;5.326;2023-06-22T15:28:51;37.67;;;34.75;;
45402;SDS011;47427;51.976;5.326;2023-06-22T15:32:13;38.30;;;35.08;;
45402;SDS011;47427;51.976;5.326;2023-06-22T15:35:35;37.25;;;34.05;;
45402;SDS011;47427;51.976;5.326;2023-06-22T15:38:58;36.40;;;33.25;;
45402;SDS011;47427;51.976;5.326;2023-06-22T15:42:21;36.10;;;33.30;;
45402;SDS011;47427;51.976;5.326;2023-06-22T15:45:42;38.65;;;35.60;;
45402;SDS011;47427;51.976;5.326;2023-06-22T15:49:05;36.92;;;34.10;;
45402;SDS011;47427;51.976;5.326;2023-06-22T15:52:27;37.75;;;34.25;;
45402;SDS011;47427;51.976;5.326;2023-06-22T15:55:49;36.90;;;33.92;;
45402;SDS011;47427;51.976;5.326;2023-06-22T15:59:16;37.60;;;34.42;;
45402;SDS011;47427;51.976;5.326;2023-06-22T16:02:37;39.03;;;35.45;;
45402;SDS011;47427;51.976;5.326;2023-06-22T16:06:01;39.50;;;36.03;;
45402;SDS011;47427;51.976;5.326;2023-06-22T16:09:25;38.00;;;34.70;;
45402;SDS011;47427;51.976;5.326;2023-06-22T16:12:47;39.28;;;35.88;;
45402;SDS011;47427;51.976;5.326;2023-06-22T16:16:11;40.63;;;37.00;;
45402;SDS011;47427;51.976;5.326;2023-06-22T16:19:33;40.70;;;36.40;;
45402;SDS011;47427;51.976;5.326;2023-06-22T16:22:57;37.80;;;34.60;;
45402;SDS011;47427;51.976;5.326;2023-06-22T16:26:18;37.50;;;34.13;;
45402;SDS011;47427;51.976;5.326;2023-06-22T16:29:41;39.53;;;35.85;;
45402;SDS011;47427;51.976;5.326;2023-06-22T16:33:04;39.08;;;35.83;;
45402;SDS011;47427;51.976;5.326;2023-06-22T16:36:27;39.38;;;35.92;;
45402;SDS011;47427;51.976;5.326;2023-06-22T16:39:50;38.50;;;35.15;;
45402;SDS011;47427;51.976;5.326;2023-06-22T16:43:12;40.15;;;35.95;;
45402;SDS011;47427;51.976;5.326;2023-06-22T16:46:35;37.55;;;34.13;;
45402;SDS011;47427;51.976;5.326;2023-06-22T16:50:01;37.97;;;34.72;;
45402;SDS011;47427;51.976;5.326;2023-06-22T16:53:25;38.50;;;35.28;;
45402;SDS011;47427;51.976;5.326;2023-06-22T16:56:49;39.03;;;35.55;;
45402;SDS011;47427;51.976;5.326;2023-06-22T17:00:14;41.65;;;38.15;;
45402;SDS011;47427;51.976;5.326;2023-06-22T17:03:39;40.90;;;37.03;;
45402;SDS011;47427;51.976;5.326;2023-06-22T17:07:09;40.85;;;37.33;;
45402;SDS011;47427;51.976;5.326;2023-06-22T17:10:36;38.60;;;35.35;;
45402;SDS011;47427;51.976;5.326;2023-06-22T17:14:00;40.35;;;36.70;;
45402;SDS011;47427;51.976;5.326;2023-06-22T17:17:21;37.92;;;34.67;;
45402;SDS011;47427;51.976;5.326;2023-06-22T17:20:46;37.97;;;35.00;;
45402;SDS011;47427;51.976;5.326;2023-06-22T17:24:08;37.03;;;33.53;;
45402;SDS011;47427;51.976;5.326;2023-06-22T17:27:33;37.22;;;33.90;;
45402;SDS011;47427;51.976;5.326;2023-06-22T17:31:07;38.78;;;35.58;;
45402;SDS011;47427;51.976;5.326;2023-06-22T17:34:31;38.15;;;34.55;;
45402;SDS011;47427;51.976;5.326;2023-06-22T17:37:55;36.92;;;33.80;;
45402;SDS011;47427;51.976;5.326;2023-06-22T17:41:22;39.20;;;35.83;;
45402;SDS011;47427;51.976;5.326;2023-06-22T17:44:59;40.00;;;36.35;;
45402;SDS011;47427;51.976;5.326;2023-06-22T17:48:22;38.97;;;35.78;;
45402;SDS011;47427;51.976;5.326;2023-06-22T17:51:45;38.30;;;35.10;;
45402;SDS011;47427;51.976;5.326;2023-06-22T17:55:10;37.10;;;33.92;;
45402;SDS011;47427;51.976;5.326;2023-06-22T17:58:31;39.10;;;35.08;;
45402;SDS011;47427;51.976;5.326;2023-06-22T18:01:54;36.72;;;33.78;;
45402;SDS011;47427;51.976;5.326;2023-06-22T18:05:16;36.67;;;33.95;;
45402;SDS011;47427;51.976;5.326;2023-06-22T18:08:39;35.92;;;33.05;;
45402;SDS011;47427;51.976;5.326;2023-06-22T18:12:03;39.75;;;36.10;;
45402;SDS011;47427;51.976;5.326;2023-06-22T18:15:30;40.75;;;37.25;;
45402;SDS011;47427;51.976;5.326;2023-06-22T18:19:00;40.83;;;37.40;;
45402;SDS011;47427;51.976;5.326;2023-06-22T18:22:23;39.45;;;35.80;;
45402;SDS011;47427;51.976;5.326;2023-06-22T18:25:46;39.45;;;36.17;;
45402;SDS011;47427;51.976;5.326;2023-06-22T18:29:12;42.05;;;38.38;;
45402;SDS011;47427;51.976;5.326;2023-06-22T18:32:34;45.58;;;41.10;;
45402;SDS011;47427;51.976;5.326;2023-06-22T18:36:00;48.53;;;43.03;;
45402;SDS011;47427;51.976;5.326;2023-06-22T18:39:23;43.53;;;39.53;;
45402;SDS011;47427;51.976;5.326;2023-06-22T18:46:29;41.85;;;37.95;;
45402;SDS011;47427;51.976;5.326;2023-06-22T18:50:04;42.25;;;38.78;;
45402;SDS011;47427;51.976;5.326;2023-06-22T18:53:28;43.20;;;39.45;;
45402;SDS011;47427;51.976;5.326;2023-06-22T18:56:56;42.50;;;38.38;;
45402;SDS011;47427;51.976;5.326;2023-06-22T19:00:29;43.30;;;39.33;;
45402;SDS011;47427;51.976;5.326;2023-06-22T19:03:52;40.42;;;36.83;;
45402;SDS011;47427;51.976;5.326;2023-06-22T19:07:18;38.33;;;34.88;;
45402;SDS011;47427;51.976;5.326;2023-06-22T19:10:40;40.63;;;36.90;;
45402;SDS011;47427;51.976;5.326;2023-06-22T19:14:06;35.70;;;32.58;;
45402;SDS011;47427;51.976;5.326;2023-06-22T19:17:29;34.78;;;31.45;;
45402;SDS011;47427;51.976;5.326;2023-06-22T19:21:06;34.95;;;31.80;;
45402;SDS011;47427;51.976;5.326;2023-06-22T19:24:50;34.75;;;31.90;;
45402;SDS011;47427;51.976;5.326;2023-06-22T19:28:16;34.03;;;31.27;;
45402;SDS011;47427;51.976;5.326;2023-06-22T19:31:38;39.05;;;35.10;;
45402;SDS011;47427;51.976;5.326;2023-06-22T19:35:05;39.55;;;35.75;;
45402;SDS011;47427;51.976;5.326;2023-06-22T19:38:31;42.78;;;38.88;;
45402;SDS011;47427;51.976;5.326;2023-06-22T19:41:54;44.10;;;40.00;;
45402;SDS011;47427;51.976;5.326;2023-06-22T19:45:16;40.92;;;37.00;;
45402;SDS011;47427;51.976;5.326;2023-06-22T19:48:39;39.05;;;35.75;;
45402;SDS011;47427;51.976;5.326;2023-06-22T19:52:06;37.92;;;34.60;;
45402;SDS011;47427;51.976;5.326;2023-06-22T19:55:30;35.90;;;32.72;;
45402;SDS011;47427;51.976;5.326;2023-06-22T19:58:54;33.53;;;30.25;;
45402;SDS011;47427;51.976;5.326;2023-06-22T20:02:18;30.23;;;27.20;;
45402;SDS011;47427;51.976;5.326;2023-06-22T20:05:40;26.05;;;24.17;;
45402;SDS011;47427;51.976;5.326;2023-06-22T20:09:04;26.15;;;24.00;;
45402;SDS011;47427;51.976;5.326;2023-06-22T20:12:28;26.15;;;23.80;;
45402;SDS011;47427;51.976;5.326;2023-06-22T20:15:51;25.02;;;22.73;;
45402;SDS011;47427;51.976;5.326;2023-06-22T20:19:13;25.65;;;23.38;;